sensor_id;sensor_type;location;lat;lon;timestamp;P1;durP1;ratioP1;P2;durP2;ratioP2
12603;SDS011;6367;52.508;13.284;2023-05-07T00:01:35;15.70;;;14.20;;
12603;SDS011;6367;52.508;13.284;2023-05-07T00:04:01;14.70;;;12.50;;
12603;SDS011;6367;52.508;13.284;2023-05-07T00:06:27;14.97;;;13.47;;
12603;SDS011;6367;52.508;13.284;2023-05-07T00:08:54;14.03;;;12.63;;
12603;SDS011;6367;52.508;13.284;2023-05-07T00:11:19;13.87;;;12.47;;
12603;SDS011;6367;52.508;13.284;2023-05-07T00:13:46;15.40;;;13.90;;
12603;SDS011;6367;52.508;13.284;2023-05-07T00:16:12;15.27;;;13.10;;
12603;SDS011;6367;52.508;13.284;2023-05-07T00:18:38;12.90;;;11.60;;
12603;SDS011;6367;52.508;13.284;2023-05-07T00:21:04;15.00;;;13.60;;
12603;SDS011;6367;52.508;13.284;2023-05-07T00:23:29;13.27;;;11.97;;
12603;SDS011;6367;52.508;13.284;2023-05-07T00:25:55;13.70;;;12.30;;
12603;SDS011;6367;52.508;13.284;2023-05-07T00:28:21;11.93;;;10.83;;
12603;SDS011;6367;52.508;13.284;2023-05-07T00:30:47;14.23;;;11.83;;
12603;SDS011;6367;52.508;13.284;2023-05-07T00:33:12;10.93;;;9.83;;
12603;SDS011;6367;52.508;13.284;2023-05-07T00:35:38;12.27;;;11.07;;
12603;SDS011;6367;52.508;13.284;2023-05-07T00:38:04;11.77;;;10.60;;
12603;SDS011;6367;52.508;13.284;2023-05-07T00:40:30;11.53;;;10.33;;
12603;SDS011;6367;52.508;13.284;2023-05-07T00:42:55;12.93;;;10.87;;
12603;SDS011;6367;52.508;13.284;2023-05-07T00:45:23;12.03;;;10.20;;
12603;SDS011;6367;52.508;13.284;2023-05-07T00:47:53;10.10;;;8.90;;
12603;SDS011;6367;52.508;13.284;2023-05-07T00:50:22;10.63;;;9.50;;
12603;SDS011;6367;52.508;13.284;2023-05-07T00:52:48;11.70;;;10.60;;
12603;SDS011;6367;52.508;13.284;2023-05-07T00:55:14;10.70;;;9.67;;
12603;SDS011;6367;52.508;13.284;2023-05-07T00:57:40;11.70;;;8.80;;
12603;SDS011;6367;52.508;13.284;2023-05-07T01:00:07;10.40;;;9.30;;
12603;SDS011;6367;52.508;13.284;2023-05-07T01:02:40;10.40;;;9.50;;
12603;SDS011;6367;52.508;13.284;2023-05-07T01:05:07;11.60;;;10.40;;
12603;SDS011;6367;52.508;13.284;2023-05-07T01:07:36;13.77;;;9.60;;
12603;SDS011;6367;52.508;13.284;2023-05-07T01:10:04;11.07;;;9.50;;
12603;SDS011;6367;52.508;13.284;2023-05-07T01:12:30;10.13;;;9.13;;
12603;SDS011;6367;52.508;13.284;2023-05-07T01:14:56;10.27;;;9.23;;
12603;SDS011;6367;52.508;13.284;2023-05-07T01:17:23;11.57;;;10.37;;
12603;SDS011;6367;52.508;13.284;2023-05-07T01:19:48;11.90;;;10.70;;
12603;SDS011;6367;52.508;13.284;2023-05-07T01:22:15;12.37;;;11.20;;
12603;SDS011;6367;52.508;13.284;2023-05-07T01:24:43;12.20;;;11.10;;
12603;SDS011;6367;52.508;13.284;2023-05-07T01:27:09;11.03;;;9.93;;
12603;SDS011;6367;52.508;13.284;2023-05-07T01:29:34;12.23;;;11.07;;
12603;SDS011;6367;52.508;13.284;2023-05-07T01:32:00;12.10;;;11.00;;
12603;SDS011;6367;52.508;13.284;2023-05-07T01:34:28;10.30;;;9.40;;
12603;SDS011;6367;52.508;13.284;2023-05-07T01:36:56;9.83;;;9.00;;
12603;SDS011;6367;52.508;13.284;2023-05-07T01:39:27;10.63;;;9.63;;
12603;SDS011;6367;52.508;13.284;2023-05-07T01:41:55;10.13;;;8.60;;
12603;SDS011;6367;52.508;13.284;2023-05-07T01:44:21;10.93;;;9.73;;
12603;SDS011;6367;52.508;13.284;2023-05-07T01:46:47;9.57;;;8.57;;
12603;SDS011;6367;52.508;13.284;2023-05-07T01:49:14;10.40;;;9.40;;
12603;SDS011;6367;52.508;13.284;2023-05-07T01:51:41;10.90;;;9.80;;
12603;SDS011;6367;52.508;13.284;2023-05-07T01:54:07;11.03;;;8.97;;
12603;SDS011;6367;52.508;13.284;2023-05-07T01:56:33;11.93;;;9.70;;
12603;SDS011;6367;52.508;13.284;2023-05-07T01:58:59;9.43;;;8.50;;
12603;SDS011;6367;52.508;13.284;2023-05-07T02:01:25;9.73;;;8.10;;
12603;SDS011;6367;52.508;13.284;2023-05-07T02:03:51;8.97;;;8.13;;
12603;SDS011;6367;52.508;13.284;2023-05-07T02:06:17;10.33;;;9.30;;
12603;SDS011;6367;52.508;13.284;2023-05-07T02:08:42;11.27;;;9.90;;
12603;SDS011;6367;52.508;13.284;2023-05-07T02:11:08;10.60;;;9.60;;
12603;SDS011;6367;52.508;13.284;2023-05-07T02:13:34;13.33;;;8.87;;
12603;SDS011;6367;52.508;13.284;2023-05-07T02:16:00;11.07;;;9.40;;
12603;SDS011;6367;52.508;13.284;2023-05-07T02:18:26;11.00;;;9.90;;
12603;SDS011;6367;52.508;13.284;2023-05-07T02:20:51;12.00;;;9.43;;
12603;SDS011;6367;52.508;13.284;2023-05-07T02:23:17;12.70;;;10.30;;
12603;SDS011;6367;52.508;13.284;2023-05-07T02:25:43;10.70;;;9.70;;
12603;SDS011;6367;52.508;13.284;2023-05-07T02:28:08;11.47;;;10.27;;
12603;SDS011;6367;52.508;13.284;2023-05-07T02:30:34;13.97;;;10.77;;
12603;SDS011;6367;52.508;13.284;2023-05-07T02:33:01;12.43;;;10.93;;
12603;SDS011;6367;52.508;13.284;2023-05-07T02:35:27;14.17;;;10.60;;
12603;SDS011;6367;52.508;13.284;2023-05-07T02:37:52;12.27;;;10.60;;
12603;SDS011;6367;52.508;13.284;2023-05-07T02:40:18;12.60;;;11.30;;
12603;SDS011;6367;52.508;13.284;2023-05-07T02:42:44;14.30;;;12.40;;
12603;SDS011;6367;52.508;13.284;2023-05-07T02:45:09;13.13;;;11.90;;
12603;SDS011;6367;52.508;13.284;2023-05-07T02:47:35;12.00;;;10.80;;
12603;SDS011;6367;52.508;13.284;2023-05-07T02:50:01;11.00;;;9.90;;
12603;SDS011;6367;52.508;13.284;2023-05-07T02:52:27;11.80;;;10.60;;
12603;SDS011;6367;52.508;13.284;2023-05-07T02:54:53;12.57;;;10.30;;
12603;SDS011;6367;52.508;13.284;2023-05-07T02:57:18;12.77;;;11.47;;
12603;SDS011;6367;52.508;13.284;2023-05-07T02:59:44;11.90;;;10.80;;
12603;SDS011;6367;52.508;13.284;2023-05-07T03:02:10;14.70;;;11.63;;
12603;SDS011;6367;52.508;13.284;2023-05-07T03:04:35;12.23;;;10.93;;
12603;SDS011;6367;52.508;13.284;2023-05-07T03:07:01;11.40;;;10.23;;
12603;SDS011;6367;52.508;13.284;2023-05-07T03:09:27;10.73;;;9.63;;
12603;SDS011;6367;52.508;13.284;2023-05-07T03:11:52;11.80;;;9.97;;
12603;SDS011;6367;52.508;13.284;2023-05-07T03:14:18;10.50;;;9.43;;
12603;SDS011;6367;52.508;13.284;2023-05-07T03:16:43;9.83;;;8.83;;
12603;SDS011;6367;52.508;13.284;2023-05-07T03:19:09;9.97;;;9.07;;
12603;SDS011;6367;52.508;13.284;2023-05-07T03:21:35;10.20;;;9.20;;
12603;SDS011;6367;52.508;13.284;2023-05-07T03:24:00;10.50;;;9.20;;
12603;SDS011;6367;52.508;13.284;2023-05-07T03:26:26;14.67;;;9.40;;
12603;SDS011;6367;52.508;13.284;2023-05-07T03:28:52;10.70;;;9.70;;
12603;SDS011;6367;52.508;13.284;2023-05-07T03:31:17;10.97;;;9.83;;
12603;SDS011;6367;52.508;13.284;2023-05-07T03:33:56;9.87;;;8.97;;
12603;SDS011;6367;52.508;13.284;2023-05-07T03:36:22;13.70;;;8.97;;
12603;SDS011;6367;52.508;13.284;2023-05-07T03:38:48;10.53;;;9.53;;
12603;SDS011;6367;52.508;13.284;2023-05-07T03:41:15;9.53;;;8.70;;
12603;SDS011;6367;52.508;13.284;2023-05-07T03:43:40;8.90;;;8.10;;
12603;SDS011;6367;52.508;13.284;2023-05-07T03:46:06;9.90;;;8.90;;
12603;SDS011;6367;52.508;13.284;2023-05-07T03:48:32;10.83;;;8.53;;
12603;SDS011;6367;52.508;13.284;2023-05-07T03:50:58;10.20;;;9.30;;
12603;SDS011;6367;52.508;13.284;2023-05-07T03:53:24;9.57;;;8.57;;
12603;SDS011;6367;52.508;13.284;2023-05-07T03:55:50;9.60;;;8.60;;
12603;SDS011;6367;52.508;13.284;2023-05-07T03:58:16;10.30;;;8.83;;
12603;SDS011;6367;52.508;13.284;2023-05-07T04:00:41;10.77;;;9.70;;
12603;SDS011;6367;52.508;13.284;2023-05-07T04:03:07;10.57;;;9.53;;
12603;SDS011;6367;52.508;13.284;2023-05-07T04:05:33;10.73;;;9.63;;
12603;SDS011;6367;52.508;13.284;2023-05-07T04:07:59;10.53;;;9.40;;
12603;SDS011;6367;52.508;13.284;2023-05-07T04:10:25;10.37;;;8.83;;
12603;SDS011;6367;52.508;13.284;2023-05-07T04:12:51;10.53;;;8.93;;
12603;SDS011;6367;52.508;13.284;2023-05-07T04:15:16;9.30;;;8.43;;
12603;SDS011;6367;52.508;13.284;2023-05-07T04:17:42;10.30;;;9.30;;
12603;SDS011;6367;52.508;13.284;2023-05-07T04:20:08;10.57;;;9.30;;
12603;SDS011;6367;52.508;13.284;2023-05-07T04:22:35;10.37;;;9.27;;
12603;SDS011;6367;52.508;13.284;2023-05-07T04:25:02;8.80;;;8.00;;
12603;SDS011;6367;52.508;13.284;2023-05-07T04:27:28;10.03;;;9.13;;
12603;SDS011;6367;52.508;13.284;2023-05-07T04:29:54;9.50;;;8.60;;
12603;SDS011;6367;52.508;13.284;2023-05-07T04:32:20;9.37;;;8.30;;
12603;SDS011;6367;52.508;13.284;2023-05-07T04:34:50;9.67;;;8.50;;
12603;SDS011;6367;52.508;13.284;2023-05-07T04:37:15;10.50;;;9.40;;
12603;SDS011;6367;52.508;13.284;2023-05-07T04:39:41;9.93;;;9.03;;
12603;SDS011;6367;52.508;13.284;2023-05-07T04:42:07;8.57;;;7.87;;
12603;SDS011;6367;52.508;13.284;2023-05-07T04:44:34;9.93;;;8.90;;
12603;SDS011;6367;52.508;13.284;2023-05-07T04:47:00;9.67;;;8.27;;
12603;SDS011;6367;52.508;13.284;2023-05-07T04:49:26;10.10;;;8.40;;
12603;SDS011;6367;52.508;13.284;2023-05-07T04:51:51;9.40;;;8.43;;
12603;SDS011;6367;52.508;13.284;2023-05-07T04:54:17;9.27;;;8.40;;
12603;SDS011;6367;52.508;13.284;2023-05-07T04:56:43;8.20;;;7.43;;
12603;SDS011;6367;52.508;13.284;2023-05-07T04:59:08;7.07;;;6.40;;
12603;SDS011;6367;52.508;13.284;2023-05-07T05:01:34;8.87;;;7.80;;
12603;SDS011;6367;52.508;13.284;2023-05-07T05:04:00;7.87;;;6.70;;
12603;SDS011;6367;52.508;13.284;2023-05-07T05:06:25;8.30;;;7.40;;
12603;SDS011;6367;52.508;13.284;2023-05-07T05:08:51;7.03;;;6.43;;
12603;SDS011;6367;52.508;13.284;2023-05-07T05:11:17;7.93;;;6.80;;
12603;SDS011;6367;52.508;13.284;2023-05-07T05:13:42;7.80;;;7.10;;
12603;SDS011;6367;52.508;13.284;2023-05-07T05:16:08;7.40;;;6.80;;
12603;SDS011;6367;52.508;13.284;2023-05-07T05:18:34;7.23;;;6.20;;
12603;SDS011;6367;52.508;13.284;2023-05-07T05:21:00;7.20;;;6.60;;
12603;SDS011;6367;52.508;13.284;2023-05-07T05:23:25;7.37;;;6.67;;
12603;SDS011;6367;52.508;13.284;2023-05-07T05:25:55;7.37;;;6.63;;
12603;SDS011;6367;52.508;13.284;2023-05-07T05:28:22;7.37;;;6.60;;
12603;SDS011;6367;52.508;13.284;2023-05-07T05:30:48;6.93;;;6.30;;
12603;SDS011;6367;52.508;13.284;2023-05-07T05:33:14;6.90;;;6.30;;
12603;SDS011;6367;52.508;13.284;2023-05-07T05:35:40;7.37;;;6.37;;
12603;SDS011;6367;52.508;13.284;2023-05-07T05:38:06;8.13;;;6.30;;
12603;SDS011;6367;52.508;13.284;2023-05-07T05:40:32;6.87;;;6.17;;
12603;SDS011;6367;52.508;13.284;2023-05-07T05:42:58;8.23;;;6.33;;
12603;SDS011;6367;52.508;13.284;2023-05-07T05:45:24;7.80;;;5.33;;
12603;SDS011;6367;52.508;13.284;2023-05-07T05:47:50;7.27;;;6.57;;
12603;SDS011;6367;52.508;13.284;2023-05-07T05:50:20;7.63;;;6.83;;
12603;SDS011;6367;52.508;13.284;2023-05-07T05:52:46;6.20;;;5.60;;
12603;SDS011;6367;52.508;13.284;2023-05-07T05:55:12;6.30;;;5.70;;
12603;SDS011;6367;52.508;13.284;2023-05-07T05:57:38;7.80;;;7.10;;
12603;SDS011;6367;52.508;13.284;2023-05-07T06:00:04;7.67;;;6.97;;
12603;SDS011;6367;52.508;13.284;2023-05-07T06:02:30;9.37;;;6.77;;
12603;SDS011;6367;52.508;13.284;2023-05-07T06:04:55;5.73;;;5.13;;
12603;SDS011;6367;52.508;13.284;2023-05-07T06:07:21;7.10;;;6.40;;
12603;SDS011;6367;52.508;13.284;2023-05-07T06:09:47;8.73;;;7.20;;
12603;SDS011;6367;52.508;13.284;2023-05-07T06:12:12;7.33;;;6.60;;
12603;SDS011;6367;52.508;13.284;2023-05-07T06:14:38;8.90;;;6.37;;
12603;SDS011;6367;52.508;13.284;2023-05-07T06:17:03;8.00;;;5.60;;
12603;SDS011;6367;52.508;13.284;2023-05-07T06:19:30;6.70;;;6.10;;
12603;SDS011;6367;52.508;13.284;2023-05-07T06:21:56;8.10;;;6.30;;
12603;SDS011;6367;52.508;13.284;2023-05-07T06:24:21;8.27;;;6.57;;
12603;SDS011;6367;52.508;13.284;2023-05-07T06:26:47;7.77;;;6.00;;
12603;SDS011;6367;52.508;13.284;2023-05-07T06:29:13;7.23;;;6.30;;
12603;SDS011;6367;52.508;13.284;2023-05-07T06:31:39;7.03;;;6.40;;
12603;SDS011;6367;52.508;13.284;2023-05-07T06:34:04;8.03;;;7.27;;
12603;SDS011;6367;52.508;13.284;2023-05-07T06:36:30;9.63;;;8.63;;
12603;SDS011;6367;52.508;13.284;2023-05-07T06:38:56;7.87;;;6.50;;
12603;SDS011;6367;52.508;13.284;2023-05-07T06:41:21;9.00;;;7.50;;
12603;SDS011;6367;52.508;13.284;2023-05-07T06:43:47;7.93;;;7.13;;
12603;SDS011;6367;52.508;13.284;2023-05-07T06:46:13;10.53;;;7.60;;
12603;SDS011;6367;52.508;13.284;2023-05-07T06:48:38;10.70;;;7.00;;
12603;SDS011;6367;52.508;13.284;2023-05-07T06:51:04;6.90;;;6.30;;
12603;SDS011;6367;52.508;13.284;2023-05-07T06:53:30;6.97;;;6.37;;
12603;SDS011;6367;52.508;13.284;2023-05-07T06:55:56;8.93;;;7.23;;
12603;SDS011;6367;52.508;13.284;2023-05-07T06:58:22;8.57;;;7.70;;
12603;SDS011;6367;52.508;13.284;2023-05-07T07:00:49;7.43;;;6.70;;
12603;SDS011;6367;52.508;13.284;2023-05-07T07:03:14;8.20;;;7.40;;
12603;SDS011;6367;52.508;13.284;2023-05-07T07:05:40;8.70;;;6.80;;
12603;SDS011;6367;52.508;13.284;2023-05-07T07:08:07;6.67;;;6.00;;
12603;SDS011;6367;52.508;13.284;2023-05-07T07:10:33;6.57;;;5.90;;
12603;SDS011;6367;52.508;13.284;2023-05-07T07:12:58;6.60;;;5.93;;
12603;SDS011;6367;52.508;13.284;2023-05-07T07:15:24;10.63;;;6.77;;
12603;SDS011;6367;52.508;13.284;2023-05-07T07:17:51;7.37;;;6.67;;
12603;SDS011;6367;52.508;13.284;2023-05-07T07:20:16;8.33;;;7.00;;
12603;SDS011;6367;52.508;13.284;2023-05-07T07:22:42;8.40;;;6.27;;
12603;SDS011;6367;52.508;13.284;2023-05-07T07:25:08;7.23;;;6.53;;
12603;SDS011;6367;52.508;13.284;2023-05-07T07:27:34;6.53;;;5.93;;
12603;SDS011;6367;52.508;13.284;2023-05-07T07:30:01;6.33;;;5.83;;
12603;SDS011;6367;52.508;13.284;2023-05-07T07:32:26;6.23;;;5.73;;
12603;SDS011;6367;52.508;13.284;2023-05-07T07:34:52;6.80;;;6.10;;
12603;SDS011;6367;52.508;13.284;2023-05-07T07:37:18;5.67;;;5.17;;
12603;SDS011;6367;52.508;13.284;2023-05-07T07:39:43;5.90;;;5.30;;
12603;SDS011;6367;52.508;13.284;2023-05-07T07:42:09;6.00;;;5.50;;
12603;SDS011;6367;52.508;13.284;2023-05-07T07:44:35;5.67;;;5.17;;
12603;SDS011;6367;52.508;13.284;2023-05-07T07:47:00;5.10;;;4.70;;
12603;SDS011;6367;52.508;13.284;2023-05-07T07:49:26;6.50;;;5.40;;
12603;SDS011;6367;52.508;13.284;2023-05-07T07:51:52;4.87;;;4.40;;
12603;SDS011;6367;52.508;13.284;2023-05-07T07:54:17;4.63;;;4.17;;
12603;SDS011;6367;52.508;13.284;2023-05-07T07:56:43;5.40;;;4.97;;
12603;SDS011;6367;52.508;13.284;2023-05-07T07:59:08;4.70;;;4.30;;
12603;SDS011;6367;52.508;13.284;2023-05-07T08:01:34;4.90;;;4.30;;
12603;SDS011;6367;52.508;13.284;2023-05-07T08:04:00;4.90;;;4.50;;
12603;SDS011;6367;52.508;13.284;2023-05-07T08:06:28;4.73;;;4.43;;
12603;SDS011;6367;52.508;13.284;2023-05-07T08:08:54;5.47;;;4.97;;
12603;SDS011;6367;52.508;13.284;2023-05-07T08:11:20;4.70;;;4.30;;
12603;SDS011;6367;52.508;13.284;2023-05-07T08:13:46;6.33;;;4.53;;
12603;SDS011;6367;52.508;13.284;2023-05-07T08:16:12;6.10;;;4.10;;
12603;SDS011;6367;52.508;13.284;2023-05-07T08:18:38;4.30;;;3.90;;
12603;SDS011;6367;52.508;13.284;2023-05-07T08:21:03;3.43;;;3.10;;
12603;SDS011;6367;52.508;13.284;2023-05-07T08:23:29;3.63;;;3.10;;
12603;SDS011;6367;52.508;13.284;2023-05-07T08:25:55;4.97;;;4.47;;
12603;SDS011;6367;52.508;13.284;2023-05-07T08:28:21;4.27;;;3.97;;
12603;SDS011;6367;52.508;13.284;2023-05-07T08:30:47;4.07;;;3.67;;
12603;SDS011;6367;52.508;13.284;2023-05-07T08:33:12;3.73;;;3.40;;
12603;SDS011;6367;52.508;13.284;2023-05-07T08:35:38;4.93;;;4.27;;
12603;SDS011;6367;52.508;13.284;2023-05-07T08:38:04;4.33;;;3.83;;
12603;SDS011;6367;52.508;13.284;2023-05-07T08:40:30;4.10;;;3.70;;
12603;SDS011;6367;52.508;13.284;2023-05-07T08:43:04;4.50;;;3.40;;
12603;SDS011;6367;52.508;13.284;2023-05-07T08:45:31;3.53;;;3.17;;
12603;SDS011;6367;52.508;13.284;2023-05-07T08:47:58;4.23;;;3.83;;
12603;SDS011;6367;52.508;13.284;2023-05-07T08:50:27;6.13;;;3.23;;
12603;SDS011;6367;52.508;13.284;2023-05-07T08:52:53;3.70;;;3.40;;
12603;SDS011;6367;52.508;13.284;2023-05-07T08:55:19;3.97;;;3.67;;
12603;SDS011;6367;52.508;13.284;2023-05-07T08:57:45;4.00;;;3.40;;
12603;SDS011;6367;52.508;13.284;2023-05-07T09:00:12;3.30;;;2.87;;
12603;SDS011;6367;52.508;13.284;2023-05-07T09:02:38;3.73;;;3.43;;
12603;SDS011;6367;52.508;13.284;2023-05-07T09:05:04;4.20;;;3.80;;
12603;SDS011;6367;52.508;13.284;2023-05-07T09:07:30;5.83;;;4.07;;
12603;SDS011;6367;52.508;13.284;2023-05-07T09:09:56;3.90;;;3.60;;
12603;SDS011;6367;52.508;13.284;2023-05-07T09:12:22;3.83;;;3.43;;
12603;SDS011;6367;52.508;13.284;2023-05-07T09:14:48;3.47;;;3.17;;
12603;SDS011;6367;52.508;13.284;2023-05-07T09:17:15;4.17;;;3.40;;
12603;SDS011;6367;52.508;13.284;2023-05-07T09:19:42;3.70;;;3.40;;
12603;SDS011;6367;52.508;13.284;2023-05-07T09:22:11;5.47;;;4.70;;
12603;SDS011;6367;52.508;13.284;2023-05-07T09:24:38;4.33;;;3.27;;
12603;SDS011;6367;52.508;13.284;2023-05-07T09:27:04;3.97;;;3.67;;
12603;SDS011;6367;52.508;13.284;2023-05-07T09:29:30;4.50;;;4.10;;
12603;SDS011;6367;52.508;13.284;2023-05-07T09:32:03;4.80;;;3.57;;
12603;SDS011;6367;52.508;13.284;2023-05-07T09:34:32;3.27;;;2.97;;
12603;SDS011;6367;52.508;13.284;2023-05-07T09:36:58;3.83;;;3.53;;
12603;SDS011;6367;52.508;13.284;2023-05-07T09:39:25;3.67;;;3.37;;
12603;SDS011;6367;52.508;13.284;2023-05-07T09:41:51;3.93;;;3.57;;
12603;SDS011;6367;52.508;13.284;2023-05-07T09:44:19;3.10;;;2.90;;
12603;SDS011;6367;52.508;13.284;2023-05-07T09:46:47;4.20;;;3.80;;
12603;SDS011;6367;52.508;13.284;2023-05-07T09:49:23;3.73;;;3.43;;
12603;SDS011;6367;52.508;13.284;2023-05-07T09:51:50;3.63;;;3.33;;
12603;SDS011;6367;52.508;13.284;2023-05-07T09:54:17;3.87;;;3.50;;
12603;SDS011;6367;52.508;13.284;2023-05-07T09:56:44;4.93;;;2.97;;
12603;SDS011;6367;52.508;13.284;2023-05-07T09:59:10;3.60;;;3.33;;
12603;SDS011;6367;52.508;13.284;2023-05-07T10:01:38;3.70;;;3.40;;
12603;SDS011;6367;52.508;13.284;2023-05-07T10:04:07;3.60;;;3.40;;
12603;SDS011;6367;52.508;13.284;2023-05-07T10:06:34;4.73;;;4.00;;
12603;SDS011;6367;52.508;13.284;2023-05-07T10:09:00;3.13;;;2.83;;
12603;SDS011;6367;52.508;13.284;2023-05-07T10:11:27;2.90;;;2.70;;
12603;SDS011;6367;52.508;13.284;2023-05-07T10:13:53;3.27;;;3.07;;
12603;SDS011;6367;52.508;13.284;2023-05-07T10:16:20;3.77;;;3.00;;
12603;SDS011;6367;52.508;13.284;2023-05-07T10:18:46;3.40;;;3.00;;
12603;SDS011;6367;52.508;13.284;2023-05-07T10:21:17;3.90;;;3.50;;
12603;SDS011;6367;52.508;13.284;2023-05-07T10:23:50;3.23;;;2.90;;
12603;SDS011;6367;52.508;13.284;2023-05-07T10:26:38;3.97;;;3.57;;
12603;SDS011;6367;52.508;13.284;2023-05-07T10:29:11;3.07;;;2.73;;
12603;SDS011;6367;52.508;13.284;2023-05-07T10:31:55;6.37;;;3.40;;
12603;SDS011;6367;52.508;13.284;2023-05-07T10:34:37;2.57;;;2.37;;
12603;SDS011;6367;52.508;13.284;2023-05-07T10:37:05;2.73;;;2.37;;
12603;SDS011;6367;52.508;13.284;2023-05-07T10:39:32;2.90;;;2.57;;
12603;SDS011;6367;52.508;13.284;2023-05-07T10:42:06;4.73;;;3.00;;
12603;SDS011;6367;52.508;13.284;2023-05-07T10:44:33;2.43;;;2.10;;
12603;SDS011;6367;52.508;13.284;2023-05-07T10:47:18;2.50;;;2.30;;
12603;SDS011;6367;52.508;13.284;2023-05-07T10:52:16;2.77;;;2.57;;
12603;SDS011;6367;52.508;13.284;2023-05-07T10:54:43;2.27;;;1.93;;
12603;SDS011;6367;52.508;13.284;2023-05-07T11:00:01;2.40;;;2.20;;
12603;SDS011;6367;52.508;13.284;2023-05-07T11:05:31;2.43;;;1.93;;
12603;SDS011;6367;52.508;13.284;2023-05-07T11:07:59;4.03;;;3.67;;
12603;SDS011;6367;52.508;13.284;2023-05-07T11:16:19;2.50;;;2.30;;
12603;SDS011;6367;52.508;13.284;2023-05-07T11:18:48;2.70;;;2.50;;
12603;SDS011;6367;52.508;13.284;2023-05-07T11:24:16;2.53;;;2.30;;
12603;SDS011;6367;52.508;13.284;2023-05-07T11:26:46;2.10;;;2.00;;
12603;SDS011;6367;52.508;13.284;2023-05-07T11:29:17;3.27;;;2.97;;
12603;SDS011;6367;52.508;13.284;2023-05-07T11:31:52;2.27;;;2.07;;
12603;SDS011;6367;52.508;13.284;2023-05-07T11:34:22;1.90;;;1.80;;
12603;SDS011;6367;52.508;13.284;2023-05-07T11:36:49;2.40;;;2.03;;
12603;SDS011;6367;52.508;13.284;2023-05-07T11:41:50;2.27;;;2.07;;
12603;SDS011;6367;52.508;13.284;2023-05-07T11:44:15;2.53;;;2.30;;
12603;SDS011;6367;52.508;13.284;2023-05-07T11:46:42;3.27;;;2.10;;
12603;SDS011;6367;52.508;13.284;2023-05-07T11:49:09;2.80;;;1.90;;
12603;SDS011;6367;52.508;13.284;2023-05-07T11:51:35;2.03;;;1.60;;
12603;SDS011;6367;52.508;13.284;2023-05-07T11:54:03;1.93;;;1.70;;
12603;SDS011;6367;52.508;13.284;2023-05-07T11:56:29;1.93;;;1.83;;
12603;SDS011;6367;52.508;13.284;2023-05-07T11:58:59;2.20;;;2.00;;
12603;SDS011;6367;52.508;13.284;2023-05-07T12:01:24;2.20;;;2.00;;
12603;SDS011;6367;52.508;13.284;2023-05-07T12:03:50;3.07;;;2.40;;
12603;SDS011;6367;52.508;13.284;2023-05-07T12:06:16;2.33;;;2.03;;
12603;SDS011;6367;52.508;13.284;2023-05-07T12:08:42;2.73;;;2.47;;
12603;SDS011;6367;52.508;13.284;2023-05-07T12:11:12;2.50;;;2.30;;
12603;SDS011;6367;52.508;13.284;2023-05-07T12:13:39;2.87;;;2.50;;
12603;SDS011;6367;52.508;13.284;2023-05-07T12:16:06;4.40;;;2.70;;
12603;SDS011;6367;52.508;13.284;2023-05-07T12:18:33;4.20;;;2.17;;
12603;SDS011;6367;52.508;13.284;2023-05-07T12:21:00;2.13;;;1.93;;
12603;SDS011;6367;52.508;13.284;2023-05-07T12:23:26;2.20;;;1.73;;
12603;SDS011;6367;52.508;13.284;2023-05-07T12:25:53;2.03;;;1.93;;
12603;SDS011;6367;52.508;13.284;2023-05-07T12:28:18;2.50;;;1.90;;
12603;SDS011;6367;52.508;13.284;2023-05-07T12:30:47;3.73;;;2.30;;
12603;SDS011;6367;52.508;13.284;2023-05-07T12:33:23;2.37;;;1.97;;
12603;SDS011;6367;52.508;13.284;2023-05-07T12:35:50;1.90;;;1.80;;
12603;SDS011;6367;52.508;13.284;2023-05-07T12:38:16;1.80;;;1.70;;
12603;SDS011;6367;52.508;13.284;2023-05-07T12:40:49;2.07;;;1.87;;
12603;SDS011;6367;52.508;13.284;2023-05-07T12:43:18;1.90;;;1.80;;
12603;SDS011;6367;52.508;13.284;2023-05-07T12:45:46;1.80;;;1.70;;
12603;SDS011;6367;52.508;13.284;2023-05-07T12:48:13;1.47;;;1.37;;
12603;SDS011;6367;52.508;13.284;2023-05-07T12:50:38;1.93;;;1.83;;
12603;SDS011;6367;52.508;13.284;2023-05-07T12:53:05;1.63;;;1.53;;
12603;SDS011;6367;52.508;13.284;2023-05-07T12:55:39;1.70;;;1.53;;
12603;SDS011;6367;52.508;13.284;2023-05-07T12:58:32;3.00;;;1.60;;
12603;SDS011;6367;52.508;13.284;2023-05-07T13:00:59;3.23;;;2.20;;
12603;SDS011;6367;52.508;13.284;2023-05-07T13:03:27;1.80;;;1.67;;
12603;SDS011;6367;52.508;13.284;2023-05-07T13:05:57;2.13;;;2.03;;
12603;SDS011;6367;52.508;13.284;2023-05-07T13:11:06;3.97;;;2.13;;
12603;SDS011;6367;52.508;13.284;2023-05-07T13:13:36;1.80;;;1.70;;
12603;SDS011;6367;52.508;13.284;2023-05-07T13:16:03;3.10;;;1.67;;
12603;SDS011;6367;52.508;13.284;2023-05-07T13:18:31;2.13;;;1.43;;
12603;SDS011;6367;52.508;13.284;2023-05-07T13:20:58;1.70;;;1.60;;
12603;SDS011;6367;52.508;13.284;2023-05-07T13:23:24;2.00;;;1.63;;
12603;SDS011;6367;52.508;13.284;2023-05-07T13:25:50;2.70;;;1.80;;
12603;SDS011;6367;52.508;13.284;2023-05-07T13:28:17;2.40;;;1.60;;
12603;SDS011;6367;52.508;13.284;2023-05-07T13:30:44;2.03;;;1.83;;
12603;SDS011;6367;52.508;13.284;2023-05-07T13:33:09;1.50;;;1.40;;
12603;SDS011;6367;52.508;13.284;2023-05-07T13:35:35;2.27;;;2.07;;
12603;SDS011;6367;52.508;13.284;2023-05-07T13:38:00;1.60;;;1.50;;
12603;SDS011;6367;52.508;13.284;2023-05-07T13:40:26;3.47;;;2.00;;
12603;SDS011;6367;52.508;13.284;2023-05-07T13:42:52;1.90;;;1.80;;
12603;SDS011;6367;52.508;13.284;2023-05-07T13:45:18;1.90;;;1.80;;
12603;SDS011;6367;52.508;13.284;2023-05-07T13:47:44;1.80;;;1.70;;
12603;SDS011;6367;52.508;13.284;2023-05-07T13:50:11;1.87;;;1.20;;
12603;SDS011;6367;52.508;13.284;2023-05-07T13:52:39;3.07;;;1.77;;
12603;SDS011;6367;52.508;13.284;2023-05-07T13:55:07;2.13;;;1.73;;
12603;SDS011;6367;52.508;13.284;2023-05-07T13:57:34;1.80;;;1.60;;
12603;SDS011;6367;52.508;13.284;2023-05-07T14:00:00;1.70;;;1.43;;
12603;SDS011;6367;52.508;13.284;2023-05-07T14:02:26;2.07;;;1.60;;
12603;SDS011;6367;52.508;13.284;2023-05-07T14:04:51;3.17;;;1.87;;
12603;SDS011;6367;52.508;13.284;2023-05-07T14:07:17;1.80;;;1.70;;
12603;SDS011;6367;52.508;13.284;2023-05-07T14:09:43;2.97;;;1.60;;
12603;SDS011;6367;52.508;13.284;2023-05-07T14:12:10;2.00;;;1.50;;
12603;SDS011;6367;52.508;13.284;2023-05-07T14:14:35;1.87;;;1.43;;
12603;SDS011;6367;52.508;13.284;2023-05-07T14:17:01;1.57;;;1.47;;
12603;SDS011;6367;52.508;13.284;2023-05-07T14:19:27;2.60;;;1.60;;
12603;SDS011;6367;52.508;13.284;2023-05-07T14:21:52;2.10;;;1.90;;
12603;SDS011;6367;52.508;13.284;2023-05-07T14:24:18;2.33;;;2.13;;
12603;SDS011;6367;52.508;13.284;2023-05-07T14:26:44;1.93;;;1.80;;
12603;SDS011;6367;52.508;13.284;2023-05-07T14:29:10;1.80;;;1.47;;
12603;SDS011;6367;52.508;13.284;2023-05-07T14:31:35;1.70;;;1.60;;
12603;SDS011;6367;52.508;13.284;2023-05-07T14:34:01;2.00;;;1.90;;
12603;SDS011;6367;52.508;13.284;2023-05-07T14:36:27;5.37;;;1.50;;
12603;SDS011;6367;52.508;13.284;2023-05-07T14:38:53;1.93;;;1.83;;
12603;SDS011;6367;52.508;13.284;2023-05-07T14:41:19;10.13;;;2.10;;
12603;SDS011;6367;52.508;13.284;2023-05-07T14:43:47;1.60;;;1.50;;
12603;SDS011;6367;52.508;13.284;2023-05-07T14:46:15;2.37;;;1.57;;
12603;SDS011;6367;52.508;13.284;2023-05-07T14:48:44;2.30;;;2.10;;
12603;SDS011;6367;52.508;13.284;2023-05-07T14:51:13;1.73;;;1.63;;
12603;SDS011;6367;52.508;13.284;2023-05-07T14:53:42;1.90;;;1.50;;
12603;SDS011;6367;52.508;13.284;2023-05-07T14:56:08;3.33;;;1.80;;
12603;SDS011;6367;52.508;13.284;2023-05-07T14:58:34;1.67;;;1.57;;
12603;SDS011;6367;52.508;13.284;2023-05-07T15:01:00;1.70;;;1.57;;
12603;SDS011;6367;52.508;13.284;2023-05-07T15:03:26;3.43;;;1.60;;